Time;durP1;ratioP1;P1;durP2;ratioP2;P2;SDS_P1;SDS_P2;PMS_P1;PMS_P2;Temp;Humidity;BMP_temperature;BMP_pressure;BME280_temperature;BME280_humidity;BME280_pressure;Samples;Min_cycle;Max_cycle;Signal;HPM_P1;HPM_P2
2021/12/04 00:02:21;;;;;;;11.93;1.73;;;;;;;;;;5021456;28;20021;-79
2021/12/04 00:04:49;;;;;;;2.08;0.80;;;;;;;;;;5025890;28;20025;-77
2021/12/04 00:07:16;;;;;;;4.03;1.23;;;;;;;;;;5023498;28;20037;-79
2021/12/04 00:09:45;;;;;;;1.27;1.00;;;;;;;;;;5027522;28;20024;-78
2021/12/04 00:12:11;;;;;;;7.65;1.42;;;;;;;;;;5029393;28;20061;-76
2021/12/04 00:14:38;;;;;;;1.42;1.20;;;;;;;;;;5029025;28;20459;-79
2021/12/04 00:17:05;;;;;;;2.72;1.15;;;;;;;;;;5024415;28;20037;-78
2021/12/04 00:19:31;;;;;;;0.95;0.80;;;;;;;;;;5025638;28;20473;-76
2021/12/04 00:21:58;;;;;;;2.70;1.33;;;;;;;;;;5026503;28;20028;-78
2021/12/04 00:24:24;;;;;;;1.75;0.77;;;;;;;;;;5025881;28;20446;-79
2021/12/04 00:26:51;;;;;;;5.63;1.25;;;;;;;;;;5026636;28;20026;-78
2021/12/04 00:29:17;;;;;;;3.55;1.17;;;;;;;;;;5026026;28;20389;-77
2021/12/04 00:31:47;;;;;;;2.53;1.42;;;;;;;;;;5021159;28;20028;-78
2021/12/04 00:34:14;;;;;;;2.13;1.27;;;;;;;;;;5024978;28;20040;-78
2021/12/04 00:37:01;;;;;;;3.28;1.52;;;;;;;;;;5028384;28;20029;-79
2021/12/04 00:50:26;;;;;;;2.72;2.53;;;;;;;;;;5019880;28;20052;-77
2021/12/04 00:52:51;;;;;;;2.92;1.10;;;;;;;;;;5028323;28;20029;-78
2021/12/04 00:55:17;;;;;;;3.67;1.70;;;;;;;;;;5024187;28;20603;-78
2021/12/04 00:57:43;;;;;;;2.42;1.48;;;;;;;;;;5030702;28;20357;-78
2021/12/04 01:00:09;;;;;;;11.18;2.88;;;2.30;99.90;;;;;;5026041;28;20030;-78
2021/12/04 01:02:35;;;;;;;8.30;2.10;;;;;;;;;;5023098;28;20108;-78
2021/12/04 01:05:02;;;;;;;2.28;1.15;;;;;;;;;;5023570;28;20469;-78
2021/12/04 01:07:28;;;;;;;2.05;0.98;;;;;;;;;;5025188;28;20033;-79
2021/12/04 01:09:54;;;;;;;2.65;0.80;;;;;;;;;;5021219;28;20503;-76
2021/12/04 01:12:20;;;;;;;2.28;1.30;;;;;;;;;;5026638;28;20040;-79
2021/12/04 01:14:45;;;;;;;2.45;0.80;;;;;;;;;;5029697;28;20025;-79
2021/12/04 01:17:11;;;;;;;0.50;0.50;;;;;;;;;;5026654;28;20022;-77
2021/12/04 01:19:38;;;;;;;1.83;1.10;;;;;;;;;;5025904;28;20393;-78
2021/12/04 01:22:04;;;;;;;1.83;0.90;;;;;;;;;;5020284;28;20053;-78
2021/12/04 01:24:30;;;;;;;1.63;0.68;;;;;;;;;;5023513;28;20036;-76
2021/12/04 01:26:56;;;;;;;1.98;1.05;;;;;;;;;;5025518;28;20037;-76
2021/12/04 01:29:22;;;;;;;2.15;0.90;;;;;;;;;;5025332;28;20013;-77
2021/12/04 01:31:49;;;;;;;1.63;1.20;;;;;;;;;;5026312;28;20030;-78
2021/12/04 01:34:15;;;;;;;1.63;0.75;;;;;;;;;;5028160;28;20048;-78
2021/12/04 01:36:41;;;;;;;0.93;0.73;;;;;;;;;;5022033;28;20037;-78
2021/12/04 01:39:07;;;;;;;1.63;1.27;;;;;;;;;;5019632;28;20033;-79
2021/12/04 01:41:34;;;;;;;2.78;2.10;;;;;;;;;;5025872;28;20045;-78
2021/12/04 01:44:00;;;;;;;2.45;0.80;;;;;;;;;;5027224;28;20068;-77
2021/12/04 01:46:27;;;;;;;4.93;1.65;;;;;;;;;;5029642;28;20034;-79
2021/12/04 01:48:53;;;;;;;1.52;0.93;;;;;;;;;;5027105;28;20045;-77
2021/12/04 01:51:19;;;;;;;0.93;0.80;;;;;;;;;;5029475;28;21002;-77
2021/12/04 01:53:45;;;;;;;1.63;0.85;;;;;;;;;;5027875;28;20148;-78
2021/12/04 01:56:11;;;;;;;1.95;0.82;;;;;;;;;;5030897;28;20037;-78
2021/12/04 01:58:37;;;;;;;2.53;0.85;;;;;;;;;;5025307;28;20033;-78
2021/12/04 02:01:03;;;;;;;1.80;0.70;;;;;;;;;;5022632;28;20029;-76
2021/12/04 02:03:29;;;;;;;1.95;1.27;;;;;;;;;;5024768;28;20049;-79
2021/12/04 02:05:55;;;;;;;2.15;0.98;;;;;;;;;;5031987;28;20060;-79
2021/12/04 02:08:23;;;;;;;0.68;0.60;;;;;;;;;;5033151;28;20041;-78
2021/12/04 02:10:50;;;;;;;1.77;0.90;;;;;;;;;;5025642;28;20120;-78
2021/12/04 02:13:17;;;;;;;3.00;1.42;;;;;;;;;;5022450;28;20096;-78
2021/12/04 02:15:43;;;;;;;2.40;0.77;;;;;;;;;;5029655;28;20026;-78
2021/12/04 02:18:09;;;;;;;0.85;0.35;;;;;;;;;;5030053;28;20029;-78
2021/12/04 02:20:36;;;;;;;2.15;0.80;;;;;;;;;;5028461;28;20056;-78
2021/12/04 02:23:03;;;;;;;1.05;0.80;;;;;;;;;;5033522;28;20063;-77
2021/12/04 02:25:29;;;;;;;2.00;1.25;;;;;;;;;;5020859;28;20362;-78
2021/12/04 02:27:55;;;;;;;2.53;1.00;;;;;;;;;;5024385;28;20041;-78
2021/12/04 02:30:24;;;;;;;3.15;1.25;;;;;;;;;;5022309;28;20026;-78
2021/12/04 02:32:51;;;;;;;1.23;0.85;;;;;;;;;;5026714;28;20444;-79
2021/12/04 02:35:17;;;;;;;1.05;0.70;;;;;;;;;;5025113;28;20036;-78
2021/12/04 02:37:43;;;;;;;2.72;1.08;;;;;;;;;;5022153;28;20080;-78
2021/12/04 02:40:10;;;;;;;2.90;1.08;;;;;;;;;;5023018;28;20172;-77
2021/12/04 02:42:36;;;;;;;1.83;0.65;;;;;;;;;;5028108;28;20080;-78
2021/12/04 02:45:06;;;;;;;3.10;1.23;;;;;;;;;;5028935;28;20032;-78
2021/12/04 02:47:32;;;;;;;4.43;1.45;;;;;;;;;;5032696;28;20068;-78
2021/12/04 02:49:58;;;;;;;2.17;1.27;;;;;;;;;;5029560;28;20053;-78
2021/12/04 02:52:24;;;;;;;1.63;0.90;;;2.40;99.90;;;;;;5024862;28;20044;-77
2021/12/04 02:54:51;;;;;;;1.55;0.82;;;;;;;;;;5017588;28;20493;-78
2021/12/04 02:57:18;;;;;;;1.05;0.90;;;;;;;;;;5022657;28;20025;-78
2021/12/04 02:59:44;;;;;;;3.13;0.80;;;;;;;;;;5025319;28;20029;-78
2021/12/04 03:02:20;;;;;;;1.55;0.98;;;;;;;;;;5026612;28;20103;-78
2021/12/04 03:04:47;;;;;;;1.63;1.23;;;;;;;;;;5020137;28;20022;-79
2021/12/04 03:07:14;;;;;;;3.25;1.67;;;2.20;99.90;;;;;;5030108;28;20025;-77
2021/12/04 03:09:40;;;;;;;4.53;1.70;;;;;;;;;;5019256;28;20076;-77
2021/12/04 03:12:07;;;;;;;2.65;1.10;;;;;;;;;;5025861;28;20064;-78
2021/12/04 03:14:33;;;;;;;2.05;0.68;;;;;;;;;;5034298;28;20026;-78
2021/12/04 03:16:59;;;;;;;0.88;0.50;;;;;;;;;;5019048;28;20045;-78
2021/12/04 03:19:25;;;;;;;0.93;0.63;;;;;;;;;;5025996;28;20030;-79
2021/12/04 03:21:52;;;;;;;2.55;1.30;;;;;;;;;;5023631;28;20033;-78
2021/12/04 03:24:19;;;;;;;2.97;1.48;;;;;;;;;;5026116;28;20040;-78
2021/12/04 03:26:49;;;;;;;1.95;1.30;;;;;;;;;;5025879;28;20036;-77
2021/12/04 03:29:18;;;;;;;4.78;1.05;;;;;;;;;;5028894;28;20094;-79
2021/12/04 03:42:44;;;;;;;3.88;1.38;;;;;;;;;;4966248;28;20132;-77
2021/12/04 03:45:11;;;;;;;2.42;1.33;;;;;;;;;;5025658;28;20053;-77
2021/12/04 03:47:45;;;;;;;3.60;1.42;;;;;;;;;;5010636;28;20469;-78
2021/12/04 03:50:11;;;;;;;1.95;0.77;;;;;;;;;;5023397;28;20056;-77
2021/12/04 03:52:37;;;;;;;2.08;1.05;;;;;;;;;;5019128;28;20485;-78
2021/12/04 03:55:07;;;;;;;2.72;1.27;;;;;;;;;;5019910;28;20048;-77
2021/12/04 03:57:33;;;;;;;2.03;1.15;;;;;;;;;;5022856;28;20025;-78
2021/12/04 03:59:59;;;;;;;1.83;1.33;;;;;;;;;;5022122;28;20362;-77
2021/12/04 04:02:26;;;;;;;2.85;1.50;;;;;;;;;;5017253;28;20032;-77
2021/12/04 04:04:52;;;;;;;3.28;1.48;;;;;;;;;;5022218;28;20031;-76
2021/12/04 04:07:18;;;;;;;1.00;0.90;;;;;;;;;;5025146;28;20025;-77
2021/12/04 04:09:44;;;;;;;3.05;1.60;;;;;;;;;;5024164;28;20036;-77
2021/12/04 04:12:10;;;;;;;4.57;1.38;;;;;;;;;;5019813;28;20056;-77
2021/12/04 04:14:37;;;;;;;3.60;1.50;;;2.10;99.90;;;;;;5020683;28;20033;-76
2021/12/04 04:17:04;;;;;;;1.85;1.00;;;2.20;99.90;;;;;;5014413;28;20029;-77
2021/12/04 04:19:30;;;;;;;3.75;1.23;;;;;;;;;;5023580;28;20061;-77
2021/12/04 04:21:57;;;;;;;2.40;1.20;;;;;;;;;;5033568;28;20044;-77
2021/12/04 04:24:24;;;;;;;5.25;2.33;;;;;;;;;;5028028;28;20107;-76
2021/12/04 04:26:50;;;;;;;4.20;1.92;;;;;;;;;;5028944;28;20051;-77
2021/12/04 04:29:16;;;;;;;3.15;1.55;;;;;;;;;;5024701;28;20048;-76
2021/12/04 04:31:47;;;;;;;3.63;1.60;;;;;;;;;;5020043;28;20029;-76
2021/12/04 04:34:35;;;;;;;2.63;1.38;;;2.00;99.90;;;;;;5020235;28;20037;-76
2021/12/04 04:37:18;;;;;;;4.40;2.05;;;;;;;;;;5022429;28;20022;-76
2021/12/04 05:12:28;;;;;;;3.90;1.45;;;;;;;;;;5033914;28;20055;-76
2021/12/04 05:14:57;;;;;;;3.00;1.52;;;;;;;;;;5018769;28;20026;-77
2021/12/04 05:20:10;;;;;;;2.97;1.77;;;;;;;;;;5024950;28;20547;-77
2021/12/04 05:22:36;;;;;;;3.72;1.80;;;;;;;;;;5022198;28;20116;-77
2021/12/04 05:25:03;;;;;;;4.90;2.15;;;;;;;;;;5025549;28;20137;-77
2021/12/04 05:27:29;;;;;;;3.42;1.45;;;;;;;;;;5025535;28;20033;-77
2021/12/04 05:29:55;;;;;;;3.70;1.70;;;;;;;;;;5027213;28;20174;-77
2021/12/04 05:32:21;;;;;;;4.32;2.45;;;;;;;;;;5026624;28;20026;-77
2021/12/04 05:34:47;;;;;;;3.30;1.63;;;;;;;;;;5020885;28;20041;-77
2021/12/04 05:37:13;;;;;;;6.35;2.80;;;;;;;;;;5024268;28;20090;-77
2021/12/04 05:39:39;;;;;;;4.00;1.73;;;;;;;;;;5024379;28;20088;-77
2021/12/04 05:42:05;;;;;;;2.42;1.83;;;;;;;;;;5023215;28;20036;-78
2021/12/04 05:44:32;;;;;;;4.63;2.08;;;;;;;;;;5025624;28;20044;-76
2021/12/04 05:47:08;;;;;;;3.33;2.55;;;;;;;;;;5026009;28;20469;-76
2021/12/04 05:57:05;;;;;;;3.28;1.90;;;;;;;;;;5016820;28;20067;-77
2021/12/04 05:59:31;;;;;;;4.32;1.85;;;;;;;;;;5020861;28;20401;-77
2021/12/04 06:01:57;;;;;;;3.33;2.50;;;;;;;;;;5012128;28;20143;-76
2021/12/04 06:04:23;;;;;;;6.20;1.98;;;;;;;;;;5026910;28;20034;-77
2021/12/04 06:06:49;;;;;;;14.98;2.55;;;;;;;;;;5021558;28;20036;-77
2021/12/04 06:09:15;;;;;;;4.53;2.42;;;;;;;;;;5021890;28;20063;-77
2021/12/04 06:11:41;;;;;;;5.28;2.75;;;;;;;;;;5024070;28;20033;-76
2021/12/04 06:14:07;;;;;;;5.90;2.58;;;;;;;;;;5023088;28;20559;-77
2021/12/04 06:16:33;;;;;;;5.15;2.83;;;;;;;;;;5022968;28;20022;-77
2021/12/04 06:19:08;;;;;;;4.18;1.80;;;;;;;;;;5024356;28;20477;-76
2021/12/04 06:24:19;;;;;;;2.55;1.73;;;;;;;;;;5021928;28;20123;-77
2021/12/04 06:26:45;;;;;;;5.07;2.92;;;;;;;;;;5026516;28;20032;-78
2021/12/04 06:29:10;;;;;;;6.53;2.10;;;;;;;;;;5026704;28;20037;-78
2021/12/04 06:31:36;;;;;;;6.40;2.25;;;;;;;;;;5026939;28;20085;-78
2021/12/04 06:34:03;;;;;;;6.82;2.63;;;;;;;;;;5030577;28;20064;-77
2021/12/04 06:36:29;;;;;;;10.23;3.38;;;;;;;;;;5023900;28;20064;-76
2021/12/04 06:38:55;;;;;;;5.55;2.15;;;;;;;;;;5021241;28;20540;-78
2021/12/04 06:41:21;;;;;;;6.22;2.28;;;;;;;;;;5033263;28;20029;-77
2021/12/04 06:43:49;;;;;;;10.45;2.40;;;;;;;;;;5027515;28;20784;-77
2021/12/04 06:46:16;;;;;;;3.40;1.88;;;;;;;;;;5029573;28;20029;-77
2021/12/04 06:48:48;;;;;;;5.10;2.13;;;;;;;;;;5022803;28;20029;-78
2021/12/04 06:51:25;;;;;;;4.70;2.38;;;;;;;;;;5025410;28;20078;-79
2021/12/04 06:53:59;;;;;;;3.67;1.60;;;;;;;;;;5034793;28;20127;-78
2021/12/04 06:56:31;;;;;;;6.75;2.75;;;;;;;;;;5025756;28;20163;-77
2021/12/04 06:58:58;;;;;;;5.93;2.90;;;;;;;;;;5024883;28;20033;-77
2021/12/04 07:01:24;;;;;;;5.10;2.10;;;;;;;;;;5028230;28;20074;-77
2021/12/04 07:03:51;;;;;;;4.63;2.45;;;;;;;;;;5024935;28;20124;-77
2021/12/04 07:06:17;;;;;;;2.50;2.03;;;;;;;;;;5019671;28;20032;-77
2021/12/04 07:08:43;;;;;;;5.53;2.50;;;;;;;;;;5025540;28;20393;-77
2021/12/04 07:11:09;;;;;;;6.50;2.67;;;;;;;;;;5023039;28;20034;-77
2021/12/04 07:13:35;;;;;;;3.78;2.03;;;;;;;;;;5027141;28;20049;-78
2021/12/04 07:16:04;;;;;;;6.70;2.13;;;;;;;;;;5026123;28;20048;-76
2021/12/04 07:18:30;;;;;;;8.32;2.83;;;;;;;;;;5023459;28;20026;-77
2021/12/04 07:20:56;;;;;;;3.78;2.25;;;;;;;;;;5018416;28;20052;-78
2021/12/04 07:23:22;;;;;;;4.97;2.35;;;;;;;;;;5031488;28;20610;-77
2021/12/04 07:25:48;;;;;;;4.72;2.08;;;;;;;;;;5025833;28;20061;-78
2021/12/04 07:28:14;;;;;;;5.40;2.33;;;;;;;;;;5028731;28;20037;-77
2021/12/04 07:30:40;;;;;;;5.60;3.03;;;;;;;;;;5024908;28;20048;-78
2021/12/04 07:33:06;;;;;;;4.93;2.40;;;;;;;;;;5022548;28;20033;-78
2021/12/04 07:35:32;;;;;;;4.57;2.15;;;;;;;;;;5024423;28;20040;-77
2021/12/04 07:38:00;;;;;;;3.85;2.25;;;;;;;;;;5021890;28;20492;-75
2021/12/04 07:40:26;;;;;;;5.88;2.65;;;;;;;;;;5020567;28;20030;-77
2021/12/04 07:42:52;;;;;;;7.57;3.25;;;;;;;;;;5015551;28;20025;-76
2021/12/04 07:45:18;;;;;;;9.60;2.97;;;;;;;;;;5016633;28;20033;-76
2021/12/04 07:47:44;;;;;;;4.25;2.15;;;;;;;;;;5017202;28;20030;-77
2021/12/04 07:50:11;;;;;;;9.60;3.67;;;;;;;;;;5016860;28;20044;-78
2021/12/04 07:52:38;;;;;;;5.40;2.33;;;;;;;;;;5020993;28;20100;-76
2021/12/04 07:55:06;;;;;;;9.90;3.80;;;;;;;;;;5021739;28;20432;-75
2021/12/04 07:57:32;;;;;;;17.33;6.00;;;;;;;;;;5017823;28;22735;-76
2021/12/04 07:59:58;;;;;;;11.73;5.28;;;;;;;;;;5021204;28;20021;-77
2021/12/04 08:02:24;;;;;;;9.55;5.97;;;;;;;;;;5024979;28;20037;-77
2021/12/04 08:04:50;;;;;;;7.75;3.50;;;;;;;;;;5024346;28;20028;-77
2021/12/04 08:07:16;;;;;;;7.93;3.22;;;;;;;;;;5021337;28;20421;-79
2021/12/04 08:09:42;;;;;;;3.63;2.33;;;;;;;;;;5021062;28;20021;-79
2021/12/04 08:12:10;;;;;;;3.47;2.17;;;;;;;;;;5025798;28;20060;-78
2021/12/04 08:14:35;;;;;;;6.25;3.72;;;;;;;;;;5020978;28;20525;-78
2021/12/04 08:17:01;;;;;;;7.25;3.83;;;;;;;;;;5020139;28;20139;-78
2021/12/04 08:19:28;;;;;;;7.25;2.92;;;2.90;99.90;;;;;;5019767;28;20050;-78
2021/12/04 08:21:54;;;;;;;5.68;3.13;;;;;;;;;;5022993;28;20064;-76
2021/12/04 08:24:20;;;;;;;4.53;2.58;;;;;;;;;;5018050;28;20029;-76
2021/12/04 08:26:47;;;;;;;8.25;3.10;;;;;;;;;;5020444;28;20053;-77
2021/12/04 08:29:13;;;;;;;7.65;4.07;;;;;;;;;;5019420;28;20083;-76
2021/12/04 08:31:40;;;;;;;12.75;4.85;;;;;;;;;;5022893;28;20103;-77
2021/12/04 08:34:06;;;;;;;10.05;5.00;;;;;;;;;;5021387;28;20049;-76
2021/12/04 08:36:32;;;;;;;6.50;4.22;;;;;;;;;;5021762;28;20491;-77
2021/12/04 08:38:59;;;;;;;8.70;4.85;;;;;;;;;;5015402;28;20030;-76
2021/12/04 08:41:26;;;;;;;9.35;2.72;;;;;;;;;;5023684;28;20507;-77
2021/12/04 08:43:54;;;;;;;7.57;3.65;;;;;;;;;;5021239;28;20032;-77
2021/12/04 08:46:20;;;;;;;5.70;3.92;;;;;;;;;;5023276;28;20057;-77
2021/12/04 08:48:47;;;;;;;7.30;4.25;;;;;;;;;;5024455;28;20393;-77
2021/12/04 08:51:13;;;;;;;10.45;4.55;;;;;;;;;;5023730;28;20025;-77
2021/12/04 08:53:41;;;;;;;10.82;3.85;;;;;;;;;;5025044;28;20038;-77
2021/12/04 08:56:06;;;;;;;1.90;1.40;;;;;;;;;;5023397;28;20485;-76
2021/12/04 08:58:35;;;;;;;5.70;3.10;;;4.10;99.90;;;;;;5011629;28;20033;-77
2021/12/04 09:01:03;;;;;;;3.50;2.13;;;;;;;;;;5026432;28;20520;-77
2021/12/04 09:03:35;;;;;;;4.82;2.53;;;3.90;99.90;;;;;;5019867;28;20033;-77
2021/12/04 09:06:02;;;;;;;6.70;1.88;;;;;;;;;;5020204;28;20030;-76
2021/12/04 09:08:29;;;;;;;4.38;3.22;;;;;;;;;;5023598;28;20092;-77
2021/12/04 09:10:56;;;;;;;6.28;2.42;;;;;;;;;;5026222;28;20025;-78
2021/12/04 09:13:24;;;;;;;5.28;2.38;;;;;;;;;;5021010;28;20543;-77
2021/12/04 09:15:50;;;;;;;5.50;2.45;;;;;;;;;;5027305;28;20855;-77
2021/12/04 09:18:15;;;;;;;4.63;2.25;;;4.90;99.90;;;;;;5025346;28;20037;-77
2021/12/04 09:20:41;;;;;;;6.10;2.45;;;;;;;;;;5016993;28;20543;-78
2021/12/04 09:23:14;;;;;;;6.75;2.85;;;;;;;;;;5017522;28;20036;-76
2021/12/04 09:25:44;;;;;;;7.10;3.80;;;;;;;;;;5017562;28;20032;-77
2021/12/04 09:28:20;;;;;;;7.47;3.20;;;;;;;;;;5015620;28;20026;-77
2021/12/04 10:00:47;;;;;;;3.42;2.08;;;;;;;;;;5026985;28;20102;-77
2021/12/04 10:06:23;;;;;;;3.35;1.50;;;;;;;;;;5028752;28;20142;-79
2021/12/04 10:14:46;;;;;;;2.95;1.70;;;;;;;;;;5025313;28;20413;-78
2021/12/04 10:17:15;;;;;;;3.35;1.70;;;;;;;;;;5027807;28;20132;-79
2021/12/04 10:22:38;;;;;;;4.05;1.73;;;;;;;;;;5022597;28;20060;-78
2021/12/04 10:33:37;;;;;;;2.25;1.48;;;;;;;;;;5028569;28;20208;-80
2021/12/04 10:36:04;;;;;;;3.08;1.60;;;;;;;;;;5025676;28;20029;-79
2021/12/04 10:38:38;;;;;;;3.38;1.50;;;;;;;;;;5027135;28;20033;-78
2021/12/04 10:41:04;;;;;;;3.38;1.55;;;;;;;;;;5030382;28;20029;-77
2021/12/04 10:43:31;;;;;;;3.58;1.42;;;;;;;;;;5025318;28;20035;-79
2021/12/04 10:46:01;;;;;;;3.50;1.73;;;;;;;;;;5026342;28;20481;-78
2021/12/04 10:48:29;;;;;;;2.88;1.25;;;;;;;;;;5024613;28;20021;-79
2021/12/04 10:53:36;;;;;;;1.92;1.02;;;5.00;99.90;;;;;;5034196;28;20128;-77
2021/12/04 11:01:10;;;;;;;;;;;;;;;;;;5027000;28;20434;-79
2021/12/04 11:06:45;;;;;;;2.58;1.10;;;5.90;99.90;;;;;;5031739;28;20088;-78
2021/12/04 11:21:07;;;;;;;1.70;1.08;;;;;;;;;;5028468;28;20063;-78
2021/12/04 11:40:05;;;;;;;2.28;1.23;;;;;;;;;;5028650;28;20124;-79
2021/12/04 11:42:38;;;;;;;1.48;0.63;;;;;;;;;;5025555;28;20040;-78
2021/12/04 11:45:22;;;;;;;2.53;1.40;;;;;;;;;;5026975;28;20030;-78
2021/12/04 11:47:49;;;;;;;;;;;;;;;;;;5038493;28;20072;-78
2021/12/04 11:50:26;;;;;;;1.77;0.60;;;;;;;;;;5040157;28;19913;-78
2021/12/04 11:52:57;;;;;;;3.17;1.63;;;;;;;;;;5042140;28;20087;-78
2021/12/04 11:55:24;;;;;;;3.22;1.35;;;;;;;;;;5025303;28;20040;-78
2021/12/04 11:57:51;;;;;;;1.73;1.10;;;;;;;;;;5024513;28;20036;-78
2021/12/04 12:00:26;;;;;;;1.05;0.75;;;;;;;;;;5028386;28;20504;-80
2021/12/04 12:03:14;;;;;;;1.48;1.02;;;6.10;99.90;;;;;;5021962;28;20025;-79
2021/12/04 12:06:04;;;;;;;1.30;0.93;;;6.20;99.90;;;;;;5027752;28;20056;-79
2021/12/04 12:08:34;;;;;;;2.38;1.50;;;;;;;;;;5028558;28;20022;-78
2021/12/04 12:11:08;;;;;;;2.15;1.25;;;;;;;;;;5030816;28;20069;-78
2021/12/04 12:13:36;;;;;;;2.83;1.50;;;;;;;;;;5029861;28;20056;-79
2021/12/04 12:16:22;;;;;;;4.72;2.05;;;;;;;;;;5031717;28;20049;-78
2021/12/04 12:18:53;;;;;;;2.75;1.20;;;;;;;;;;5021070;28;20086;-79
2021/12/04 12:21:24;;;;;;;4.35;1.20;;;;;;;;;;5020738;28;20035;-79
2021/12/04 12:26:49;;;;;;;1.33;0.95;;;;;;;;;;5029521;28;20045;-79
2021/12/04 12:38:17;;;;;;;1.33;0.77;;;;;;;;;;5020478;28;20037;-79
2021/12/04 12:40:57;;;;;;;1.05;0.80;;;6.10;99.90;;;;;;5017271;28;20034;-79
2021/12/04 12:43:23;;;;;;;2.38;1.13;;;;;;;;;;5024729;28;20017;-79
2021/12/04 12:45:55;;;;;;;1.27;0.73;;;;;;;;;;5029297;28;20029;-79
2021/12/04 12:48:21;;;;;;;1.52;0.98;;;;;;;;;;5016023;28;20025;-79
2021/12/04 12:50:47;;;;;;;1.58;0.85;;;;;;;;;;5022881;28;20086;-80
2021/12/04 12:53:15;;;;;;;4.95;1.02;;;;;;;;;;5030116;28;20558;-79
2021/12/04 12:55:42;;;;;;;2.78;1.27;;;;;;;;;;5025653;28;20030;-78
2021/12/04 12:58:12;;;;;;;5.07;1.63;;;;;;;;;;5025582;28;20045;-78
2021/12/04 13:11:48;;;;;;;1.70;1.10;;;;;;;;;;5027652;28;20545;-77
2021/12/04 13:14:14;;;;;;;2.53;1.13;;;;;;;;;;5028232;28;20091;-77
2021/12/04 13:16:43;;;;;;;1.02;0.50;;;;;;;;;;5026804;28;20668;-76
2021/12/04 13:19:12;;;;;;;2.92;1.27;;;;;;;;;;5020512;28;20721;-77
2021/12/04 13:21:39;;;;;;;3.08;1.30;;;;;;;;;;5022210;28;20026;-77
2021/12/04 13:24:06;;;;;;;1.58;1.25;;;;;;;;;;5021716;28;20055;-78
2021/12/04 13:26:34;;;;;;;3.30;1.73;;;;;;;;;;5022549;28;20068;-78
2021/12/04 13:29:01;;;;;;;10.57;3.30;;;;;;;;;;5018841;28;20524;-79
2021/12/04 13:31:28;;;;;;;4.47;2.65;;;;;;;;;;5016855;28;20029;-78
2021/12/04 13:33:54;;;;;;;6.47;3.00;;;;;;;;;;5025831;28;20037;-79
2021/12/04 13:36:22;;;;;;;3.03;1.48;;;;;;;;;;5018748;28;20037;-78
2021/12/04 13:38:59;;;;;;;7.22;2.60;;;;;;;;;;5015818;28;20080;-77
2021/12/04 13:41:25;;;;;;;9.93;3.05;;;;;;;;;;5024264;28;20033;-78
2021/12/04 13:43:52;;;;;;;15.30;4.13;;;;;;;;;;5023116;28;20032;-78
2021/12/04 13:46:18;;;;;;;14.02;4.50;;;;;;;;;;5021339;28;20030;-78
2021/12/04 13:48:44;;;;;;;9.05;3.45;;;;;;;;;;5027306;28;20133;-79
2021/12/04 13:51:11;;;;;;;3.42;1.85;;;;;;;;;;5028031;28;20088;-79
2021/12/04 13:53:40;;;;;;;11.55;2.63;;;6.30;99.90;;;;;;5018511;28;20065;-78
2021/12/04 13:56:09;;;;;;;8.02;2.83;;;6.10;99.90;;;;;;5026149;28;20029;-78
2021/12/04 13:58:43;;;;;;;5.63;2.83;;;;;;;;;;5027059;28;20064;-77
2021/12/04 14:01:09;;;;;;;8.73;3.70;;;;;;;;;;5030945;28;20045;-78
2021/12/04 14:03:37;;;;;;;3.80;2.78;;;;;;;;;;5034888;28;20362;-78
2021/12/04 14:06:04;;;;;;;4.80;2.22;;;;;;;;;;5026145;28;20041;-78
2021/12/04 14:08:30;;;;;;;5.10;2.08;;;;;;;;;;5020883;28;20390;-78
2021/12/04 14:10:56;;;;;;;2.58;1.48;;;;;;;;;;5031130;28;20041;-79
2021/12/04 14:13:25;;;;;;;1.70;1.13;;;7.00;99.90;;;;;;5026554;28;20591;-78
2021/12/04 14:15:54;;;;;;;2.55;1.15;;;;;;;;;;5035717;28;20028;-78
2021/12/04 14:18:22;;;;;;;3.90;1.00;;;;;;;;;;5025346;28;20033;-79
2021/12/04 14:20:52;;;;;;;0.77;0.63;;;;;;;;;;5024601;28;20026;-78
2021/12/04 14:23:18;;;;;;;1.60;1.23;;;;;;;;;;5027043;28;20095;-79
2021/12/04 14:25:46;;;;;;;4.65;2.20;;;;;;;;;;5024213;28;20043;-79
2021/12/04 14:28:13;;;;;;;2.47;1.67;;;;;;;;;;5025202;28;20378;-78
2021/12/04 14:30:43;;;;;;;3.35;2.45;;;;;;;;;;5018426;28;20033;-78
2021/12/04 14:33:10;;;;;;;2.60;1.58;;;;;;;;;;5030895;28;20542;-79
2021/12/04 14:35:37;;;;;;;7.70;4.00;;;;;;;;;;5030177;28;20021;-77
2021/12/04 14:38:06;;;;;;;13.02;7.97;;;;;;;;;;5028436;28;20034;-78
2021/12/04 14:40:34;;;;;;;8.90;4.85;;;;;;;;;;5032382;28;20045;-78
2021/12/04 14:43:01;;;;;;;5.60;3.83;;;;;;;;;;5023437;28;20040;-77
2021/12/04 14:45:33;;;;;;;4.05;2.50;;;;;;;;;;5028319;28;20050;-77
2021/12/04 14:48:10;;;;;;;4.53;1.90;;;;;;;;;;5035974;28;20501;-77
2021/12/04 14:50:38;;;;;;;4.88;2.15;;;;;;;;;;5042827;28;20048;-77
2021/12/04 14:53:07;;;;;;;2.75;1.40;;;;;;;;;;5039248;28;20044;-77
2021/12/04 14:55:35;;;;;;;2.55;1.20;;;;;;;;;;5031384;28;20018;-77
2021/12/04 14:58:05;;;;;;;4.43;1.25;;;6.10;99.90;;;;;;5029887;28;20029;-76
2021/12/04 15:00:33;;;;;;;2.20;1.25;;;;;;;;;;5033798;28;20030;-79
2021/12/04 15:03:01;;;;;;;2.25;1.35;;;;;;;;;;5025296;28;20036;-80
2021/12/04 15:05:32;;;;;;;2.38;1.50;;;;;;;;;;5035066;28;20058;-79
2021/12/04 15:08:00;;;;;;;3.50;1.90;;;;;;;;;;5031600;28;20054;-78
2021/12/04 15:10:26;;;;;;;5.63;3.58;;;;;;;;;;5025585;28;20035;-79
2021/12/04 15:12:55;;;;;;;6.82;2.15;;;;;;;;;;5035204;28;20378;-80
2021/12/04 15:15:21;;;;;;;4.60;2.55;;;;;;;;;;5036805;28;20060;-80
2021/12/04 15:17:54;;;;;;;3.65;2.10;;;;;;;;;;5033527;28;20033;-79
2021/12/04 15:20:28;;;;;;;;;;;;;;;;;;5034975;28;20026;-77
2021/12/04 15:22:57;;;;;;;3.33;2.17;;;;;;;;;;5034775;28;20283;-80
2021/12/04 15:25:26;;;;;;;4.35;2.45;;;;;;;;;;5032353;28;20029;-77
2021/12/04 15:27:52;;;;;;;4.45;2.20;;;;;;;;;;5018782;28;20116;-79
2021/12/04 15:30:19;;;;;;;5.32;2.33;;;6.00;99.90;;;;;;5031420;28;20060;-79
2021/12/04 15:32:46;;;;;;;7.50;2.30;;;;;;;;;;5029946;28;20037;-79
2021/12/04 15:35:15;;;;;;;5.90;3.10;;;;;;;;;;5033425;28;20037;-78
2021/12/04 15:37:49;;;;;;;9.30;3.90;;;6.30;99.90;;;;;;5038136;28;20025;-80
2021/12/04 15:40:26;;;;;;;10.32;4.32;;;;;;;;;;5033620;28;20112;-77
2021/12/04 15:43:01;;;;;;;8.18;4.57;;;6.30;99.90;;;;;;5030733;28;20029;-78
2021/12/04 15:45:55;;;;;;;10.65;5.20;;;;;;;;;;5030274;28;20029;-79
2021/12/04 15:48:39;;;;;;;10.55;4.10;;;;;;;;;;5035886;28;20506;-78
2021/12/04 15:53:57;;;;;;;14.05;5.13;;;;;;;;;;5030563;28;20119;-77
2021/12/04 15:56:29;;;;;;;11.05;4.97;;;7.10;99.90;;;;;;5028374;28;20033;-80
2021/12/04 15:58:55;;;;;;;7.75;3.72;;;;;;;;;;5028153;28;20037;-80
2021/12/04 16:01:27;;;;;;;8.82;4.60;;;6.60;99.90;;;;;;5033660;28;20146;-81
2021/12/04 16:03:53;;;;;;;5.95;3.40;;;;;;;;;;5026362;28;20052;-79
2021/12/04 16:06:20;;;;;;;6.05;3.58;;;;;;;;;;5035229;28;20033;-80
2021/12/04 16:08:46;;;;;;;10.27;4.03;;;;;;;;;;5032113;28;20025;-80
2021/12/04 16:11:14;;;;;;;6.32;3.15;;;;;;;;;;5033700;28;20057;-79
2021/12/04 16:13:43;;;;;;;4.50;2.28;;;;;;;;;;5029072;28;20037;-78
2021/12/04 16:16:17;;;;;;;6.30;2.60;;;;;;;;;;5041486;28;20036;-79
2021/12/04 16:18:43;;;;;;;5.78;2.97;;;;;;;;;;5038565;28;20017;-77
2021/12/04 16:21:10;;;;;;;5.47;3.10;;;;;;;;;;5030099;28;20036;-80
2021/12/04 16:23:37;;;;;;;5.78;1.98;;;;;;;;;;5027814;28;20536;-78
2021/12/04 16:26:03;;;;;;;2.50;1.42;;;;;;;;;;5030215;28;20041;-78
2021/12/04 16:34:01;;;;;;;2.75;1.65;;;;;;;;;;5034632;28;20052;-79
2021/12/04 16:36:41;;;;;;;3.47;1.35;;;;;;;;;;5027495;28;20025;-77
2021/12/04 16:39:10;;;;;;;7.80;2.17;;;;;;;;;;5019315;28;20037;-79
2021/12/04 16:41:37;;;;;;;4.13;2.13;;;;;;;;;;5022196;28;20038;-80
2021/12/04 16:44:06;;;;;;;1.48;0.98;;;7.70;99.90;;;;;;5021484;28;20030;-79
2021/12/04 16:46:35;;;;;;;1.08;0.45;;;;;;;;;;5027183;28;20025;-80
2021/12/04 16:49:02;;;;;;;5.93;0.77;;;;;;;;;;5030651;28;20041;-79
2021/12/04 16:59:20;;;;;;;1.90;1.00;;;;;;;;;;5020339;28;20040;-81
2021/12/04 17:01:51;;;;;;;1.13;0.77;;;7.80;99.90;;;;;;5034898;28;20076;-79
2021/12/04 17:04:18;;;;;;;3.08;0.68;;;8.10;99.90;;;;;;5035646;28;20033;-78
2021/12/04 17:06:46;;;;;;;0.82;0.63;;;;;;;;;;5038711;28;20038;-80
2021/12/04 17:09:12;;;;;;;2.53;1.23;;;;;;;;;;5031655;28;20071;-81
2021/12/04 17:11:40;;;;;;;3.20;1.00;;;;;;;;;;5027416;28;20037;-79
2021/12/04 17:14:06;;;;;;;1.35;0.82;;;;;;;;;;5027223;28;20041;-81
2021/12/04 17:16:32;;;;;;;1.92;1.00;;;;;;;;;;5022022;28;20029;-80
2021/12/04 17:19:07;;;;;;;1.10;0.90;;;8.20;99.90;;;;;;5025800;28;20486;-80
2021/12/04 17:21:34;;;;;;;1.40;0.80;;;;;;;;;;5025342;28;20604;-80
2021/12/04 17:24:01;;;;;;;1.73;0.77;;;;;;;;;;5026490;28;20029;-80
2021/12/04 17:26:27;;;;;;;1.63;0.93;;;;;;;;;;5029760;28;20024;-80
2021/12/04 17:28:54;;;;;;;0.85;0.52;;;;;;;;;;5024970;28;20033;-81
2021/12/04 17:31:20;;;;;;;2.72;1.33;;;;;;;;;;5028618;28;20090;-80
2021/12/04 17:33:51;;;;;;;1.67;1.08;;;;;;;;;;5024621;28;20200;-81
2021/12/04 17:36:17;;;;;;;1.08;0.90;;;8.90;99.90;;;;;;5030670;28;20040;-79
2021/12/04 17:38:44;;;;;;;1.15;0.90;;;;;;;;;;5022962;28;20071;-80
2021/12/04 17:41:15;;;;;;;1.13;0.77;;;;;;;;;;5028900;28;20061;-79
2021/12/04 17:43:41;;;;;;;1.70;0.80;;;;;;;;;;5032373;28;20099;-78
2021/12/04 17:46:08;;;;;;;1.52;1.00;;;;;;;;;;5026826;28;20047;-78
2021/12/04 17:48:34;;;;;;;5.05;1.55;;;;;;;;;;5030143;28;20033;-79
2021/12/04 17:51:02;;;;;;;1.27;1.08;;;;;;;;;;5028369;28;20033;-78
2021/12/04 17:53:29;;;;;;;2.92;1.13;;;;;;;;;;5025554;28;20049;-80
2021/12/04 17:55:54;;;;;;;4.32;1.17;;;;;;;;;;5023525;28;20516;-79